METAR Data
IDs: Format: Raw Decoded Include TAF

Data at: 1951 UTC 26 Sep 2021

KSUX 261852Z 18010KT 10SM CLR 28/13 A2972 RMK AO2 SLP057 T02780128